Airfield :
LOGIN :

Register | Disclaimer

   EN    FR    IT 

 










Legend :    VFR   Marginal VFR   IFR   Intensive IFR   Very Intensive IFR
Visi :
Ceiling :
>= 8 km
>= 3000ft
5 to 8 km
1000 to 3000 ft
1500m to 5 km
500 to 1000 ft
800 to 1500m
200 to 500 ft
< 800m
< 200 ft
Symbols :   Thunderstorms  Fog  Heavy snow  Heavy precipitations  Wind > 20 kt
SIGMETs :     Misc.  Thunderstorms  Icing  Turbulence  Mountain Waves  Volcanic Ashes







- Airport Elevation : 24 ft
- IATA code : SGD


EKSB - Sonderborg

CURRENT METAR :
  • 221050Z 26016G27KT 230V290 9999 FEW025TCU BKN040 16/08 Q1010 RESHRA

EXPIRED METARs :
  • 221020Z 25017G29KT 210V290 9999 -SHRA FEW025CB BKN040 15/09 Q1010
  • 220950Z 26010KT 230V290 9999 FEW020CB BKN033 14/10 Q1010 RESHRA
  • 220922Z 25011KT 210V270 9999 -SHRA FEW020CB BKN040 13/09 Q1010
  • 220850Z 24009KT 200V270 9999 -SHRA FEW020CB BKN035 12/09 Q1010
  • 220820Z 23010KT 190V260 9999 -SHRA FEW020CB 13/08 Q1010
  • 220750Z 24011KT 200V260 9999 -SHRA FEW020TCU 13/08 Q1010

TAF TAF EKSB
Valid from the 22 at 09:00 until the 22 at 16:00 UTC


220852Z 2209/2216 26015KT 9999 SCT020
TEMPO 2209/2216 26015G25KT 4000 SHRA SCT020CB
No reported NOTAMs for that airfield.



MET'MAP, your aeronautical weather chart ! - Copyright ORBIFLY December 2007 - Disclaimer

ORBIFLY MET'MAP TEAM :

Programming & Development : Alexandra Zaïnal
Concept & Development : Baudouin d'Aumeries
Co-Development & Prog : Marc-Olivier Méhu
Technical & hardware support : Manuel Goepfert

Contact : metmap@orbifly.com




SOURCES & CREDITS :

   NOAA